Manhattan, NY

5:29 AM EDT en Octubre 26, 2014 (GMT -0400)
Murray Hill | Change Station
CLOSE
Current Station
Estación meteorológica personal
Location: New York, NY
Altura: 98 ft
Estaciones meteorológicas cercanas

Alt 98 ft 40.75 °N, 73.98 °W | Updated 8 seconds ago

Clear
Despejado
55.8 ° F
Sensación térmica 55.8 ° F
N
7.0
Viento Variable Viento desde ONO
Gusts 17.0 mph

Hoy
Alta -- | Baja -- ° F
--% Posibilidad de precipitaciones
Ayer
Alta -- | Baja -- ° F
Precip. -- pul
7:19 AM 5:59 PM
Creciente, 7% visible
Presión 29.58 pul
Visibilidad 10.0 Millas
Nubes Despejado
Punto de rocío 43 ° F
Humedad 63%
Precipitaciones 0.00 pul
Espesor de la nieve No disponible.
UV 0 de una escala de 12
Polen 1.40 de una escala de 12
PM2.5 Moderada
Flu Activity Sporadic
METAR KNYC 260851Z AUTO 30008KT 10SM CLR 14/06 A2961 RMK AO2 SLP016 T01390061 53008 $

More Conditions Fewer Conditions

Presión 29.58 pul
Visibilidad 10.0 Millas
Nubes Despejado
Punto de rocío 43 ° F
Humedad 63%
Precipitaciones 0.00 pul
Espesor de la nieve No disponible.
UV 0 de una escala de 12
Polen 1.40 de una escala de 12
PM2.5 Moderada
Flu Activity Sporadic
METAR KNYC 260851Z AUTO 30008KT 10SM CLR 14/06 A2961 RMK AO2 SLP016 T01390061 53008 $

More Conditions Fewer Conditions

10-Day Weather Forecast

Almanac

Astronomía

Oct. 26, 2014 Salida Puesta
Hora real 7:19 AM EDT 5:59 PM EDT
Crepúsculo civil 6:51 AM EDT 6:27 PM EDT
Crepúsculo náutico 6:19 AM EDT 7:00 PM EDT
Crepúsculo astronómico 5:47 AM EDT 7:31 PM EDT
Luna 9:55 AM EDT 8:08 PM EDT
Horas de luz 11h 36m
Horas de luz
10h 40m
Tomorrow will be 2m 29s shorter.
Creciente, 7% of the Moon is Illuminated
Hoy
Creciente
Oct 30
Cuarto creciente
Nov 6
Luna llena
Nov 14
Cuarto menguante
Nov 22
Nueva

Extremos de hoy

Máximos del estado Bajos del estado

Community

WunderPhotos

Upload Photos

1,765,130 ¡fotos cargadas!

Nearby

Calidad del aire

  Calidad del aire Índice AQ Contaminante
Ayer Buena
PM2.5
Ayer Buena
OZONE
Real Moderada
PM2.5
Domingo Buena
PM2.5
Lunes Buena
PM2.5

Grosos de nieve

Estación Profundido Altura
No tenemos constancia de nieve nueva.

Actividad de terremotos

Ciudad Distance Mag. Tiempo y dato
No hay informes recientes de la actividad sísmica.
Magnitud mínima muestra es 2,5.

Temperaturas de aguas costeras

Lugar Temperatura
Sandy Hook, NJ 57.0 ° F
The Battery, NY 61.0 ° F

Estaciones meteorológicas cercanas